createdAt,value
2019-03-03T00:00:46.291Z,0.00
2019-03-03T00:01:46.255Z,0.00
2019-03-03T00:02:46.247Z,0.00
2019-03-03T00:03:46.251Z,0.00
2019-03-03T00:04:46.243Z,0.00
2019-03-03T00:05:46.280Z,0.00
2019-03-03T00:06:46.238Z,0.00
2019-03-03T00:07:46.240Z,0.00
2019-03-03T00:08:46.233Z,0.00
2019-03-03T00:09:46.237Z,0.00
2019-03-03T00:10:46.264Z,0.00
2019-03-03T00:11:46.220Z,0.00
2019-03-03T00:12:46.222Z,0.00
2019-03-03T00:13:46.227Z,0.00
2019-03-03T00:14:46.213Z,0.00
2019-03-03T00:15:46.260Z,0.00
2019-03-03T00:16:46.222Z,0.00
2019-03-03T00:17:46.204Z,0.00
2019-03-03T00:18:46.213Z,0.00
2019-03-03T00:19:46.208Z,0.00
2019-03-03T00:20:46.248Z,0.00
2019-03-03T00:21:46.202Z,0.00
2019-03-03T00:22:46.195Z,0.00
2019-03-03T00:23:46.192Z,0.00
2019-03-03T00:24:46.197Z,0.00
2019-03-03T00:25:46.222Z,0.00
2019-03-03T00:26:46.246Z,0.00
2019-03-03T00:27:46.191Z,0.00
2019-03-03T00:28:46.176Z,0.00
2019-03-03T00:29:46.181Z,0.00
2019-03-03T00:30:46.270Z,0.00
2019-03-03T00:31:46.175Z,0.00
2019-03-03T00:32:46.178Z,0.00
2019-03-03T00:33:46.166Z,0.00
2019-03-03T00:34:46.160Z,0.00
2019-03-03T00:35:46.194Z,0.00
2019-03-03T00:36:46.203Z,0.00
2019-03-03T00:37:46.156Z,0.00
2019-03-03T00:38:46.158Z,0.00
2019-03-03T00:39:46.151Z,0.00
2019-03-03T00:40:46.192Z,0.00
2019-03-03T00:41:46.180Z,0.00
2019-03-03T00:42:46.147Z,0.00
2019-03-03T00:43:46.145Z,0.00
2019-03-03T00:44:46.146Z,0.00
2019-03-03T00:45:46.191Z,0.00
2019-03-03T00:46:46.143Z,0.00
2019-03-03T00:47:46.142Z,0.00
2019-03-03T00:48:46.133Z,0.00
2019-03-03T00:49:46.155Z,0.00
2019-03-03T00:50:46.127Z,0.00
2019-03-03T00:51:46.164Z,0.00
2019-03-03T00:52:46.123Z,0.00
2019-03-03T00:53:46.125Z,0.00
2019-03-03T00:54:46.115Z,0.00
2019-03-03T00:55:46.119Z,0.00
2019-03-03T00:56:46.170Z,0.00
2019-03-03T00:57:46.107Z,0.00
2019-03-03T00:58:46.115Z,0.00
2019-03-03T00:59:46.102Z,0.00
2019-03-03T01:00:46.106Z,0.00
2019-03-03T01:01:46.136Z,0.00
2019-03-03T01:02:46.106Z,0.00
2019-03-03T01:03:46.094Z,0.00
2019-03-03T01:04:46.090Z,0.00
2019-03-03T01:05:46.089Z,0.00
2019-03-03T01:06:46.119Z,0.00
2019-03-03T01:07:46.134Z,0.00
2019-03-03T01:08:46.086Z,0.00
2019-03-03T01:09:46.079Z,0.00
2019-03-03T01:10:46.080Z,0.00
2019-03-03T01:11:46.115Z,0.00
2019-03-03T01:12:46.073Z,0.00
2019-03-03T01:13:46.077Z,0.00
2019-03-03T01:14:46.070Z,0.00
2019-03-03T01:15:46.065Z,0.00
2019-03-03T01:16:46.104Z,0.00
2019-03-03T01:17:46.063Z,0.00
2019-03-03T01:18:46.066Z,0.00
2019-03-03T01:19:46.062Z,0.00
2019-03-03T01:20:46.095Z,0.00
2019-03-03T01:21:46.051Z,0.00
2019-03-03T01:22:46.098Z,0.00
2019-03-03T01:23:46.049Z,0.00
2019-03-03T01:24:46.048Z,0.00
2019-03-03T01:25:46.049Z,0.00
2019-03-03T01:26:46.038Z,0.00
2019-03-03T01:27:46.079Z,0.00
2019-03-03T01:28:46.044Z,0.00
2019-03-03T01:29:46.034Z,0.00
2019-03-03T01:30:46.030Z,0.00
2019-03-03T01:31:46.041Z,0.00
2019-03-03T01:32:46.057Z,0.00
2019-03-03T01:33:46.024Z,0.00
2019-03-03T01:34:46.025Z,0.00
2019-03-03T01:35:46.017Z,0.00
2019-03-03T01:36:46.023Z,0.00
2019-03-03T01:37:46.023Z,0.00
2019-03-03T01:38:46.058Z,0.00
2019-03-03T01:39:46.013Z,0.00
2019-03-03T01:40:46.011Z,0.00
2019-03-03T01:41:46.011Z,0.00
2019-03-03T01:42:46.047Z,0.00
2019-03-03T01:43:46.012Z,0.00
2019-03-03T01:44:45.999Z,0.00
2019-03-03T01:45:46.001Z,0.00
2019-03-03T01:46:45.993Z,0.00
2019-03-03T01:47:46.020Z,0.00
2019-03-03T01:48:46.026Z,0.00
2019-03-03T01:49:45.987Z,0.00
2019-03-03T01:50:45.987Z,0.00
2019-03-03T01:51:45.984Z,0.00
2019-03-03T01:52:46.019Z,0.00
2019-03-03T01:53:45.980Z,0.00
2019-03-03T01:54:45.977Z,0.00
2019-03-03T01:55:46.011Z,0.00
2019-03-03T01:56:45.971Z,0.00
2019-03-03T01:57:45.994Z,0.00
2019-03-03T01:58:46.011Z,0.00
2019-03-03T01:59:45.964Z,0.00
2019-03-03T02:00:45.968Z,0.00
2019-03-03T02:01:45.954Z,0.00
2019-03-03T02:02:45.952Z,0.00
2019-03-03T02:03:46.012Z,0.00
2019-03-03T02:04:45.957Z,0.00
2019-03-03T02:05:45.950Z,0.00
2019-03-03T02:06:45.953Z,0.00
2019-03-03T02:07:45.947Z,0.00
2019-03-03T02:08:45.985Z,0.00
2019-03-03T02:09:45.939Z,0.00
2019-03-03T02:10:45.945Z,0.00
2019-03-03T02:11:45.940Z,0.00
2019-03-03T02:12:45.943Z,0.00
2019-03-03T02:13:45.960Z,0.00
2019-03-03T02:14:45.967Z,0.00
2019-03-03T02:15:45.933Z,0.00
2019-03-03T02:16:45.918Z,0.00
2019-03-03T02:17:45.924Z,0.00
2019-03-03T02:18:45.965Z,0.00
2019-03-03T02:19:45.919Z,0.00
2019-03-03T02:20:45.954Z,0.00
2019-03-03T02:21:45.911Z,0.00
2019-03-03T02:22:45.911Z,0.00
2019-03-03T02:23:45.947Z,0.00
2019-03-03T02:24:45.900Z,0.00
2019-03-03T02:25:45.898Z,0.00
2019-03-03T02:26:45.903Z,0.00
2019-03-03T02:27:45.895Z,0.00
2019-03-03T02:28:45.947Z,0.00
2019-03-03T02:29:45.917Z,0.00
2019-03-03T02:30:45.941Z,0.00
2019-03-03T02:31:45.942Z,0.00
2019-03-03T02:32:45.906Z,0.00
2019-03-03T02:33:45.896Z,0.00
2019-03-03T02:34:45.912Z,0.00
2019-03-03T02:35:45.878Z,0.00
2019-03-03T02:36:45.919Z,0.00
2019-03-03T02:37:45.874Z,0.00
2019-03-03T02:38:45.878Z,0.00
2019-03-03T02:39:45.909Z,0.00
2019-03-03T02:40:45.869Z,0.00
2019-03-03T02:41:45.875Z,0.00
2019-03-03T02:42:45.860Z,0.00
2019-03-03T02:43:45.859Z,0.00
2019-03-03T02:44:45.900Z,0.00
2019-03-03T02:45:45.859Z,0.00
2019-03-03T02:46:45.857Z,0.00
2019-03-03T02:47:45.859Z,0.00
2019-03-03T02:48:45.892Z,0.00
2019-03-03T02:49:45.887Z,0.00
2019-03-03T02:50:45.851Z,0.00
2019-03-03T02:51:45.841Z,0.00
2019-03-03T02:52:45.848Z,0.00
2019-03-03T02:53:45.851Z,0.00
2019-03-03T02:54:45.863Z,0.00
2019-03-03T02:55:45.875Z,0.00
2019-03-03T02:56:45.830Z,0.00
2019-03-03T02:57:45.828Z,0.00
2019-03-03T02:58:45.843Z,0.00
2019-03-03T02:59:45.862Z,0.00
2019-03-03T03:00:45.823Z,0.00
2019-03-03T03:01:45.820Z,0.00
2019-03-03T03:02:45.820Z,0.00
2019-03-03T03:03:45.822Z,0.00
2019-03-03T03:04:45.852Z,0.00
2019-03-03T03:05:45.816Z,0.00
2019-03-03T03:06:45.826Z,0.00
2019-03-03T03:07:45.817Z,0.00
2019-03-03T03:08:45.810Z,0.00
2019-03-03T03:09:45.846Z,0.00
2019-03-03T03:10:45.808Z,0.00
2019-03-03T03:11:45.821Z,0.00
2019-03-03T03:12:45.800Z,0.00
2019-03-03T03:13:45.794Z,0.00
2019-03-03T03:14:45.850Z,0.00
2019-03-03T03:15:45.803Z,0.00
2019-03-03T03:16:45.791Z,0.00
2019-03-03T03:17:45.787Z,0.00
2019-03-03T03:18:45.786Z,0.00
2019-03-03T03:19:45.816Z,0.00
2019-03-03T03:20:45.789Z,0.00
2019-03-03T03:21:45.778Z,0.00
2019-03-03T03:22:45.785Z,0.00
2019-03-03T03:23:45.783Z,0.00
2019-03-03T03:24:45.768Z,0.00
2019-03-03T03:25:45.835Z,0.00
2019-03-03T03:26:45.768Z,0.00
2019-03-03T03:27:45.758Z,0.00
2019-03-03T03:28:45.766Z,0.00
2019-03-03T03:29:45.755Z,0.00
2019-03-03T03:30:45.802Z,0.00
2019-03-03T03:31:45.758Z,0.00
2019-03-03T03:32:45.752Z,0.00
2019-03-03T03:33:45.750Z,0.00
2019-03-03T03:34:45.753Z,0.00
2019-03-03T03:35:45.785Z,0.00
2019-03-03T03:36:45.747Z,0.00
2019-03-03T03:37:45.752Z,0.00
2019-03-03T03:38:45.737Z,0.00
2019-03-03T03:39:45.761Z,0.00
2019-03-03T03:40:45.766Z,0.00
2019-03-03T03:41:45.773Z,0.00
2019-03-03T03:42:45.727Z,0.00
2019-03-03T03:43:45.730Z,0.00
2019-03-03T03:44:45.729Z,0.00
2019-03-03T03:45:45.756Z,0.00
2019-03-03T03:46:45.726Z,0.00
2019-03-03T03:47:45.716Z,0.00
2019-03-03T03:48:45.723Z,0.00
2019-03-03T03:49:45.717Z,0.00
2019-03-03T03:50:45.726Z,0.00
2019-03-03T03:51:45.755Z,0.00
2019-03-03T03:52:45.716Z,0.00
2019-03-03T03:53:45.704Z,0.00
2019-03-03T03:54:45.713Z,0.00
2019-03-03T03:55:45.715Z,0.00
2019-03-03T03:56:45.744Z,0.00
2019-03-03T03:57:45.696Z,0.00
2019-03-03T03:58:45.702Z,0.00
2019-03-03T03:59:45.691Z,0.00
2019-03-03T04:00:45.701Z,0.00
2019-03-03T04:01:45.728Z,0.00
2019-03-03T04:02:45.683Z,0.00
2019-03-03T04:03:45.683Z,0.00
2019-03-03T04:04:45.686Z,0.00
2019-03-03T04:05:45.690Z,0.00
2019-03-03T04:06:45.718Z,0.00
2019-03-03T04:07:45.679Z,0.00
2019-03-03T04:08:45.675Z,0.00
2019-03-03T04:09:45.678Z,0.00
2019-03-03T04:10:45.671Z,0.00
2019-03-03T04:11:45.709Z,0.00
2019-03-03T04:12:45.668Z,0.00
2019-03-03T04:13:45.676Z,0.00
2019-03-03T04:14:45.673Z,0.00
2019-03-03T04:15:45.668Z,0.00
2019-03-03T04:16:45.697Z,0.00
2019-03-03T04:17:45.664Z,0.00
2019-03-03T04:18:45.681Z,0.00
2019-03-03T04:19:45.658Z,0.00
2019-03-03T04:20:45.730Z,0.00
2019-03-03T04:21:45.685Z,0.00
2019-03-03T04:22:45.678Z,0.00
2019-03-03T04:23:45.658Z,0.00
2019-03-03T04:24:45.646Z,0.00
2019-03-03T04:25:45.643Z,0.00
2019-03-03T04:26:45.647Z,0.00
2019-03-03T04:27:45.671Z,0.00
2019-03-03T04:28:45.644Z,0.00
2019-03-03T04:29:45.639Z,0.00
2019-03-03T04:30:45.636Z,0.00
2019-03-03T04:31:45.631Z,0.00
2019-03-03T04:32:45.660Z,0.00
2019-03-03T04:33:45.627Z,0.00
2019-03-03T04:34:45.629Z,0.00
2019-03-03T04:35:45.627Z,0.00
2019-03-03T04:36:45.622Z,0.00
2019-03-03T04:37:45.648Z,0.00
2019-03-03T04:38:45.616Z,0.00
2019-03-03T04:39:45.614Z,0.00
2019-03-03T04:40:45.622Z,0.00
2019-03-03T04:41:45.616Z,0.00
2019-03-03T04:42:45.631Z,0.00
2019-03-03T04:43:45.630Z,0.00
2019-03-03T04:44:45.610Z,0.00
2019-03-03T04:45:45.596Z,0.00
2019-03-03T04:46:45.595Z,0.00
2019-03-03T04:47:45.632Z,0.00
2019-03-03T04:48:45.603Z,0.00
2019-03-03T04:49:45.620Z,0.00
2019-03-03T04:50:45.584Z,0.00
2019-03-03T04:51:45.589Z,0.00
2019-03-03T04:52:45.628Z,0.00
2019-03-03T04:53:45.579Z,0.00
2019-03-03T04:54:45.585Z,0.00
2019-03-03T04:55:45.580Z,0.00
2019-03-03T04:56:45.575Z,0.00
2019-03-03T04:57:45.576Z,0.00
2019-03-03T04:58:45.596Z,0.00
2019-03-03T04:59:45.568Z,0.00
2019-03-03T05:00:45.563Z,0.00
2019-03-03T05:01:45.575Z,0.00
2019-03-03T05:02:45.561Z,0.00
2019-03-03T05:03:45.580Z,0.00
2019-03-03T05:04:45.590Z,0.00
2019-03-03T05:05:45.566Z,0.00
2019-03-03T05:06:45.555Z,0.00
2019-03-03T05:07:45.551Z,0.00
2019-03-03T05:08:45.589Z,0.00
2019-03-03T05:09:45.548Z,0.00
2019-03-03T05:10:45.544Z,0.00
2019-03-03T05:11:45.539Z,0.00
2019-03-03T05:12:45.572Z,0.00
2019-03-03T05:13:45.540Z,0.00
2019-03-03T05:14:45.555Z,0.00
2019-03-03T05:15:45.537Z,0.00
2019-03-03T05:16:45.529Z,0.00
2019-03-03T05:17:45.522Z,0.00
2019-03-03T05:18:45.547Z,0.00
2019-03-03T05:19:45.549Z,0.00
2019-03-03T05:20:45.520Z,0.00
2019-03-03T05:21:45.516Z,0.00
2019-03-03T05:22:45.511Z,0.00
2019-03-03T05:23:45.527Z,4.00
2019-03-03T05:24:45.535Z,4.00
2019-03-03T05:25:45.516Z,4.00
2019-03-03T05:26:45.527Z,4.00
2019-03-03T05:27:45.502Z,4.00
2019-03-03T05:28:45.501Z,8.00
2019-03-03T05:29:45.520Z,4.00
2019-03-03T05:30:45.496Z,8.00
2019-03-03T05:31:45.488Z,12.00
2019-03-03T05:32:45.491Z,12.00
2019-03-03T05:33:45.486Z,12.00
2019-03-03T05:34:45.509Z,16.00
2019-03-03T05:35:45.488Z,20.00
2019-03-03T05:36:45.480Z,24.00
2019-03-03T05:37:45.478Z,24.00
2019-03-03T05:38:45.525Z,24.00
2019-03-03T05:39:45.509Z,24.00
2019-03-03T05:40:45.495Z,28.00
2019-03-03T05:41:45.471Z,32.00
2019-03-03T05:42:45.467Z,28.00
2019-03-03T05:43:45.464Z,36.00
2019-03-03T05:44:45.508Z,44.00
2019-03-03T05:45:45.455Z,52.00
2019-03-03T05:46:45.467Z,64.00
2019-03-03T05:47:45.449Z,68.00
2019-03-03T05:48:45.450Z,92.00
2019-03-03T05:49:45.477Z,104.00
2019-03-03T05:50:45.471Z,112.00
2019-03-03T05:51:45.448Z,116.00
2019-03-03T05:52:45.464Z,128.00
2019-03-03T05:53:45.443Z,172.00
2019-03-03T05:54:45.435Z,188.00
2019-03-03T05:55:45.463Z,188.00
2019-03-03T05:56:45.432Z,204.00
2019-03-03T05:57:45.424Z,224.00
2019-03-03T05:58:45.427Z,268.00
2019-03-03T05:59:45.423Z,288.00
2019-03-03T06:00:45.454Z,276.00
2019-03-03T06:01:45.423Z,280.00
2019-03-03T06:02:45.415Z,264.00
2019-03-03T06:03:45.424Z,272.00
2019-03-03T06:04:45.409Z,292.00
2019-03-03T06:05:47.369Z,296.00
2019-03-03T06:06:45.452Z,360.00
2019-03-03T06:07:45.410Z,528.00
2019-03-03T06:08:45.409Z,560.00
2019-03-03T06:09:45.402Z,572.00
2019-03-03T06:10:45.426Z,624.00
2019-03-03T06:11:45.397Z,764.00
2019-03-03T06:12:45.430Z,844.00
2019-03-03T06:13:45.409Z,808.00
2019-03-03T06:14:45.385Z,796.00
2019-03-03T06:15:45.424Z,900.00
2019-03-03T06:16:45.383Z,928.00
2019-03-03T06:17:45.383Z,868.00
2019-03-03T06:18:45.413Z,720.00
2019-03-03T06:19:45.376Z,704.00
2019-03-03T06:20:45.402Z,688.00
2019-03-03T06:21:45.379Z,808.00
2019-03-03T06:22:45.377Z,796.00
2019-03-03T06:23:45.375Z,708.00
2019-03-03T06:24:45.369Z,736.00
2019-03-03T06:25:45.417Z,764.00
2019-03-03T06:26:45.366Z,672.00
2019-03-03T06:27:45.360Z,712.00
2019-03-03T06:28:45.364Z,772.00
2019-03-03T06:29:45.358Z,876.00
2019-03-03T06:30:45.388Z,1012.00
2019-03-03T06:31:45.351Z,1180.00
2019-03-03T06:32:45.351Z,1196.00
2019-03-03T06:33:45.347Z,1656.00
2019-03-03T06:34:45.342Z,1820.00
2019-03-03T06:35:45.378Z,1824.00
2019-03-03T06:36:45.355Z,1616.00
2019-03-03T06:37:45.358Z,1920.00
2019-03-03T06:38:45.342Z,2320.00
2019-03-03T06:39:45.334Z,2596.00
2019-03-03T06:40:45.373Z,2140.00
2019-03-03T06:41:45.333Z,2300.00
2019-03-03T06:42:45.332Z,2184.00
2019-03-03T06:43:45.325Z,2532.00
2019-03-03T06:44:45.329Z,2844.00
2019-03-03T06:45:45.358Z,2648.00
2019-03-03T06:46:45.346Z,2956.00
2019-03-03T06:47:45.322Z,3068.00
2019-03-03T06:48:45.329Z,3196.00
2019-03-03T06:49:45.314Z,3196.00
2019-03-03T06:50:45.313Z,2880.00
2019-03-03T06:51:45.346Z,2240.00
2019-03-03T06:52:45.309Z,2216.00
2019-03-03T06:53:45.307Z,2108.00
2019-03-03T06:54:45.301Z,1884.00
2019-03-03T06:55:45.317Z,1820.00
2019-03-03T06:56:45.333Z,1812.00
2019-03-03T06:57:45.301Z,1836.00
2019-03-03T06:58:45.292Z,1976.00
2019-03-03T06:59:45.293Z,1948.00
2019-03-03T07:00:45.296Z,2040.00
2019-03-03T07:01:45.404Z,2096.00
2019-03-03T07:02:45.292Z,2216.00
2019-03-03T07:03:45.295Z,2008.00
2019-03-03T07:04:45.280Z,2028.00
2019-03-03T07:05:45.282Z,2620.00
2019-03-03T07:06:45.318Z,3048.00
2019-03-03T07:07:45.307Z,3160.00
2019-03-03T07:08:45.275Z,3128.00
2019-03-03T07:09:45.275Z,3636.00
2019-03-03T07:10:45.278Z,4272.00
2019-03-03T07:11:45.299Z,4676.00
2019-03-03T07:12:45.266Z,4648.00
2019-03-03T07:13:45.268Z,5472.00
2019-03-03T07:14:45.263Z,5192.00
2019-03-03T07:15:45.263Z,5524.00
2019-03-03T07:16:47.806Z,6204.00
2019-03-03T07:17:45.258Z,5808.00
2019-03-03T07:18:45.267Z,6160.00
2019-03-03T07:19:45.404Z,5504.00
2019-03-03T07:20:45.302Z,5124.00
2019-03-03T07:21:45.281Z,4512.00
2019-03-03T07:22:45.251Z,4216.00
2019-03-03T07:23:45.258Z,4016.00
2019-03-03T07:24:45.244Z,3516.00
2019-03-03T07:25:45.243Z,3776.00
2019-03-03T07:26:45.267Z,4276.00
2019-03-03T07:27:45.240Z,4152.00
2019-03-03T07:28:45.243Z,4496.00
2019-03-03T07:29:45.235Z,3644.00
2019-03-03T07:30:45.237Z,3448.00
2019-03-03T07:31:45.267Z,4216.00
2019-03-03T07:32:45.234Z,4308.00
2019-03-03T07:33:45.231Z,4544.00
2019-03-03T07:34:47.063Z,4620.00
2019-03-03T07:35:45.260Z,4472.00
2019-03-03T07:36:45.227Z,4604.00
2019-03-03T07:37:45.261Z,4316.00
2019-03-03T07:38:45.219Z,4800.00
2019-03-03T07:39:45.217Z,6764.00
2019-03-03T07:40:45.943Z,6836.00
2019-03-03T07:41:45.240Z,5560.00
2019-03-03T07:42:45.240Z,5748.00
2019-03-03T07:43:45.215Z,6276.00
2019-03-03T07:44:45.209Z,6388.00
2019-03-03T07:45:45.206Z,6796.00
2019-03-03T07:46:45.225Z,5368.00
2019-03-03T07:47:45.233Z,5656.00
2019-03-03T07:48:45.235Z,6084.00
2019-03-03T07:49:45.199Z,5652.00
2019-03-03T07:50:45.199Z,6776.00
2019-03-03T07:51:45.194Z,5624.00
2019-03-03T07:52:45.224Z,6080.00
2019-03-03T07:53:45.200Z,5936.00
2019-03-03T07:54:45.196Z,5172.00
2019-03-03T07:55:45.195Z,5692.00
2019-03-03T07:56:45.188Z,6448.00
2019-03-03T07:57:46.858Z,5692.00
2019-03-03T07:58:45.187Z,4892.00
2019-03-03T07:59:45.189Z,4148.00
2019-03-03T08:00:45.181Z,3948.00
2019-03-03T08:01:45.180Z,4228.00
2019-03-03T08:02:45.208Z,4536.00
2019-03-03T08:03:45.179Z,4400.00
2019-03-03T08:04:45.175Z,4784.00
2019-03-03T08:05:45.177Z,4820.00
2019-03-03T08:06:45.170Z,3992.00
2019-03-03T08:07:45.196Z,4412.00
2019-03-03T08:08:45.197Z,4532.00
2019-03-03T08:09:45.167Z,4884.00
2019-03-03T08:10:45.164Z,5064.00
2019-03-03T08:11:45.170Z,5044.00
2019-03-03T08:12:45.205Z,4772.00
2019-03-03T08:13:45.155Z,5296.00
2019-03-03T08:14:45.187Z,6108.00
2019-03-03T08:15:45.162Z,6028.00
2019-03-03T08:16:45.152Z,6948.00
2019-03-03T08:17:45.184Z,6972.00
2019-03-03T08:18:45.156Z,6976.00
2019-03-03T08:19:45.147Z,6196.00
2019-03-03T08:20:45.152Z,5452.00
2019-03-03T08:21:45.143Z,5932.00
2019-03-03T08:22:45.175Z,4680.00
2019-03-03T08:23:45.192Z,5900.00
2019-03-03T08:24:45.952Z,5772.00
2019-03-03T08:25:45.144Z,6204.00
2019-03-03T08:26:45.152Z,4840.00
2019-03-03T08:27:45.143Z,5712.00
2019-03-03T08:28:45.176Z,5440.00
2019-03-03T08:29:45.132Z,5488.00
2019-03-03T08:30:45.136Z,5488.00
2019-03-03T08:31:45.151Z,5948.00
2019-03-03T08:32:45.130Z,6864.00
2019-03-03T08:33:45.156Z,6812.00
2019-03-03T08:34:45.204Z,6668.00
2019-03-03T08:35:45.127Z,6132.00
2019-03-03T08:36:47.957Z,6516.00
2019-03-03T08:37:45.128Z,8596.00
2019-03-03T08:38:45.151Z,10388.00
2019-03-03T08:39:45.957Z,9860.00
2019-03-03T08:40:45.148Z,10716.00
2019-03-03T08:41:45.119Z,9344.00
2019-03-03T08:42:45.121Z,9816.00
2019-03-03T08:43:45.144Z,11696.00
2019-03-03T08:44:45.112Z,10104.00
2019-03-03T08:45:45.111Z,10152.00
2019-03-03T08:46:45.112Z,11088.00
2019-03-03T08:47:52.997Z,11428.00
2019-03-03T08:48:45.140Z,13732.00
2019-03-03T08:49:45.112Z,14600.00
2019-03-03T08:50:45.124Z,14592.00
2019-03-03T08:51:45.104Z,14864.00
2019-03-03T08:52:45.102Z,16088.00
2019-03-03T08:53:45.130Z,16788.00
2019-03-03T08:54:45.100Z,16188.00
2019-03-03T08:55:45.097Z,16144.00
2019-03-03T08:56:45.107Z,15172.00
2019-03-03T08:57:45.094Z,13712.00
2019-03-03T08:58:45.126Z,13068.00
2019-03-03T08:59:45.093Z,12928.00
2019-03-03T09:00:45.098Z,13536.00
2019-03-03T09:01:45.096Z,13148.00
2019-03-03T09:02:45.093Z,13640.00
2019-03-03T09:03:45.120Z,13208.00
2019-03-03T09:04:45.108Z,13124.00
2019-03-03T09:05:45.092Z,14088.00
2019-03-03T09:06:45.089Z,12876.00
2019-03-03T09:07:45.094Z,12588.00
2019-03-03T09:08:45.092Z,12376.00
2019-03-03T09:09:45.116Z,10896.00
2019-03-03T09:10:45.224Z,10252.00
2019-03-03T09:11:45.085Z,10640.00
2019-03-03T09:12:45.085Z,9028.00
2019-03-03T09:13:45.094Z,9632.00
2019-03-03T09:14:45.129Z,10528.00
2019-03-03T09:15:45.813Z,9892.00
2019-03-03T09:16:45.281Z,9180.00
2019-03-03T09:17:45.338Z,8516.00
2019-03-03T09:18:45.086Z,9092.00
2019-03-03T09:19:45.105Z,10376.00
2019-03-03T09:20:45.080Z,11440.00
2019-03-03T09:21:45.948Z,10720.00
2019-03-03T09:22:45.072Z,10944.00
2019-03-03T09:23:45.068Z,12172.00
2019-03-03T09:24:45.107Z,10756.00
2019-03-03T09:25:45.075Z,11844.00
2019-03-03T09:26:45.070Z,12148.00
2019-03-03T09:27:45.072Z,13092.00
2019-03-03T09:28:45.074Z,12416.00
2019-03-03T09:29:45.105Z,11416.00
2019-03-03T09:30:45.949Z,10380.00
2019-03-03T09:31:45.949Z,10640.00
2019-03-03T09:34:16.774Z,12584.00
2019-03-03T09:35:16.734Z,13540.00
2019-03-03T09:36:16.724Z,14416.00
2019-03-03T09:37:16.706Z,13024.00
2019-03-03T09:38:16.710Z,11248.00
2019-03-03T09:39:16.709Z,13256.00
2019-03-03T09:40:16.733Z,13596.00
2019-03-03T09:41:16.701Z,14488.00
2019-03-03T09:42:16.705Z,14516.00
2019-03-03T09:43:16.706Z,16928.00
2019-03-03T09:44:16.702Z,18976.00
2019-03-03T09:45:16.760Z,17516.00
2019-03-03T09:46:16.714Z,15456.00
2019-03-03T09:47:16.701Z,13516.00
2019-03-03T09:48:16.709Z,14020.00
2019-03-03T09:49:17.290Z,14252.00
2019-03-03T09:50:16.725Z,14356.00
2019-03-03T09:51:16.727Z,12964.00
2019-03-03T09:52:16.693Z,16308.00
2019-03-03T09:53:16.704Z,14592.00
2019-03-03T09:54:16.749Z,13664.00
2019-03-03T09:55:16.696Z,12888.00
2019-03-03T09:56:16.722Z,14684.00
2019-03-03T09:57:16.688Z,17168.00
2019-03-03T09:58:16.686Z,16372.00
2019-03-03T09:59:16.689Z,17456.00
2019-03-03T10:00:16.686Z,17648.00
2019-03-03T10:01:16.745Z,16836.00
2019-03-03T10:02:16.689Z,20352.00
2019-03-03T10:03:16.683Z,21504.00
2019-03-03T10:04:16.688Z,22752.00
2019-03-03T10:05:16.689Z,19776.00
2019-03-03T10:06:16.714Z,20160.00
2019-03-03T10:07:16.690Z,19232.00
2019-03-03T10:08:16.688Z,20064.00
2019-03-03T10:09:16.691Z,21120.00
2019-03-03T10:10:16.681Z,19776.00
2019-03-03T10:11:16.714Z,18240.00
2019-03-03T10:12:16.762Z,18336.00
2019-03-03T10:13:16.681Z,20480.00
2019-03-03T10:14:16.683Z,21184.00
2019-03-03T10:15:16.680Z,21984.00
2019-03-03T10:16:16.709Z,21920.00
2019-03-03T10:17:16.682Z,20960.00
2019-03-03T10:18:16.676Z,19584.00
2019-03-03T10:19:16.675Z,18240.00
2019-03-03T10:20:16.678Z,18688.00
2019-03-03T10:21:16.679Z,17548.00
2019-03-03T10:22:16.703Z,18208.00
2019-03-03T10:23:16.680Z,19296.00
2019-03-03T10:24:16.674Z,15376.00
2019-03-03T10:25:16.670Z,14392.00
2019-03-03T10:26:16.673Z,12968.00
2019-03-03T10:27:16.703Z,13880.00
2019-03-03T10:28:16.709Z,11816.00
2019-03-03T10:29:16.703Z,11680.00
2019-03-03T10:30:16.674Z,11664.00
2019-03-03T10:31:16.678Z,11092.00
2019-03-03T10:32:16.726Z,9892.00
2019-03-03T10:33:16.668Z,12164.00
2019-03-03T10:34:16.674Z,13244.00
2019-03-03T10:35:16.669Z,11876.00
2019-03-03T10:36:16.674Z,9792.00
2019-03-03T10:37:16.698Z,9696.00
2019-03-03T10:38:16.671Z,11220.00
2019-03-03T10:39:16.676Z,11060.00
2019-03-03T10:40:16.666Z,10532.00
2019-03-03T10:41:16.656Z,10760.00
2019-03-03T10:42:16.696Z,10548.00
2019-03-03T10:43:17.639Z,11848.00
2019-03-03T10:44:16.667Z,12620.00
2019-03-03T10:45:16.750Z,14188.00
2019-03-03T10:46:16.666Z,13900.00
2019-03-03T10:47:16.694Z,15092.00
2019-03-03T10:48:16.659Z,18304.00
2019-03-03T10:49:17.687Z,19168.00
2019-03-03T10:50:16.663Z,15820.00
2019-03-03T10:51:16.666Z,15808.00
2019-03-03T10:52:16.689Z,14812.00
2019-03-03T10:53:16.690Z,15340.00
2019-03-03T10:54:16.657Z,18720.00
2019-03-03T10:55:16.659Z,20928.00
2019-03-03T10:56:16.659Z,20800.00
2019-03-03T10:57:16.689Z,15648.00
2019-03-03T10:58:16.693Z,13604.00
2019-03-03T10:59:16.688Z,12580.00
2019-03-03T11:00:16.660Z,12356.00
2019-03-03T11:01:16.654Z,11864.00
2019-03-03T11:02:16.658Z,11960.00
2019-03-03T11:03:16.690Z,11872.00
2019-03-03T11:04:16.667Z,12920.00
2019-03-03T11:05:17.237Z,13588.00
2019-03-03T11:06:16.651Z,13396.00
2019-03-03T11:07:16.654Z,14048.00
2019-03-03T11:08:16.686Z,13280.00
2019-03-03T11:09:16.678Z,14516.00
2019-03-03T11:10:16.656Z,17480.00
2019-03-03T11:11:16.652Z,16468.00
2019-03-03T11:12:16.651Z,18592.00
2019-03-03T11:13:16.678Z,16028.00
2019-03-03T11:14:16.654Z,16660.00
2019-03-03T11:15:18.656Z,19936.00
2019-03-03T11:16:16.647Z,23008.00
2019-03-03T11:17:16.646Z,22112.00
2019-03-03T11:18:16.723Z,21984.00
2019-03-03T11:19:16.658Z,25472.00
2019-03-03T11:20:16.643Z,25088.00
2019-03-03T11:21:17.217Z,23104.00
2019-03-03T11:22:16.646Z,26784.00
2019-03-03T11:23:16.664Z,28864.00
2019-03-03T11:24:16.645Z,27872.00
2019-03-03T11:25:16.647Z,24736.00
2019-03-03T11:26:16.647Z,28896.00
2019-03-03T11:27:16.652Z,29248.00
2019-03-03T11:28:23.498Z,27040.00
2019-03-03T11:29:16.674Z,26208.00
2019-03-03T11:30:16.645Z,24128.00
2019-03-03T11:31:16.647Z,21888.00
2019-03-03T11:32:16.651Z,24960.00
2019-03-03T11:33:16.643Z,26880.00
2019-03-03T11:34:16.673Z,26144.00
2019-03-03T11:35:16.653Z,31360.00
2019-03-03T11:36:16.650Z,27968.00
2019-03-03T11:37:16.644Z,33184.00
2019-03-03T11:38:16.647Z,35648.00
2019-03-03T11:39:16.680Z,36864.00
2019-03-03T11:40:16.648Z,35648.00
2019-03-03T11:41:16.651Z,31552.00
2019-03-03T11:42:16.657Z,30208.00
2019-03-03T11:43:16.653Z,29184.00
2019-03-03T11:44:16.679Z,28832.00
2019-03-03T11:45:16.680Z,26208.00
2019-03-03T11:46:16.660Z,25664.00
2019-03-03T11:47:16.657Z,24896.00
2019-03-03T11:48:16.660Z,23296.00
2019-03-03T11:49:16.691Z,22272.00
2019-03-03T11:50:16.663Z,21088.00
2019-03-03T11:51:16.668Z,19968.00
2019-03-03T11:52:16.860Z,18080.00
2019-03-03T11:53:16.659Z,16240.00
2019-03-03T11:54:16.699Z,16256.00
2019-03-03T11:55:16.661Z,16740.00
2019-03-03T11:56:16.688Z,18112.00
2019-03-03T11:57:16.675Z,18368.00
2019-03-03T11:58:16.669Z,17408.00
2019-03-03T11:59:16.695Z,18176.00
2019-03-03T12:00:16.665Z,19040.00
2019-03-03T12:01:16.670Z,19328.00
2019-03-03T12:02:16.672Z,17160.00
2019-03-03T12:03:16.668Z,16424.00
2019-03-03T12:04:16.695Z,17572.00
2019-03-03T12:05:16.668Z,17020.00
2019-03-03T12:06:16.674Z,16316.00
2019-03-03T12:07:16.672Z,18208.00
2019-03-03T12:08:16.665Z,20512.00
2019-03-03T12:09:16.706Z,20480.00
2019-03-03T12:10:16.672Z,19136.00
2019-03-03T12:11:16.672Z,18752.00
2019-03-03T12:12:16.669Z,19040.00
2019-03-03T12:13:16.678Z,19328.00
2019-03-03T12:14:16.887Z,19168.00
2019-03-03T12:15:16.672Z,22592.00
2019-03-03T12:16:16.672Z,21440.00
2019-03-03T12:17:16.669Z,18880.00
2019-03-03T12:18:16.672Z,18880.00
2019-03-03T12:19:16.704Z,19712.00
2019-03-03T12:20:16.701Z,18880.00
2019-03-03T12:21:16.674Z,17208.00
2019-03-03T12:22:16.672Z,16248.00
2019-03-03T12:23:17.254Z,15044.00
2019-03-03T12:24:16.673Z,14400.00
2019-03-03T12:25:16.705Z,14120.00
2019-03-03T12:26:16.673Z,15440.00
2019-03-03T12:27:16.680Z,16356.00
2019-03-03T12:28:16.671Z,15740.00
2019-03-03T12:29:16.677Z,14616.00
2019-03-03T12:30:16.707Z,12120.00
2019-03-03T12:31:16.709Z,11732.00
2019-03-03T12:32:16.670Z,11528.00
2019-03-03T12:33:16.672Z,11784.00